Time;durP1;ratioP1;P1;durP2;ratioP2;P2;SDS_P1;SDS_P2;PMS_P1;PMS_P2;Temp;Humidity;BMP_temperature;BMP_pressure;BME280_temperature;BME280_humidity;BME280_pressure;Samples;Min_cycle;Max_cycle;Signal;HPM_P1;HPM_P2
2022/08/19 00:01:51;;;;;;;11.20;9.02;;;;;;;21.26;66.08;100102.28;5076399;28;20108;-68
2022/08/19 00:04:19;;;;;;;10.00;9.00;;;;;;;21.28;65.98;100102.88;5073554;28;20103;-71
2022/08/19 00:06:46;;;;;;;11.27;9.65;;;;;;;21.29;65.73;100099.97;5086931;28;20499;-68
2022/08/19 00:09:15;;;;;;;10.63;9.43;;;;;;;21.31;65.87;100094.31;5083743;28;20617;-67
2022/08/19 00:11:41;;;;;;;12.40;11.07;;;;;;;21.31;66.25;100086.25;5085312;28;20514;-69
2022/08/19 00:14:09;;;;;;;12.82;10.48;;;;;;;21.32;65.92;100080.66;5083248;28;20473;-68
2022/08/19 00:16:36;;;;;;;12.68;11.20;;;;;;;21.31;66.17;100062.06;5085260;28;20047;-67
2022/08/19 00:19:02;;;;;;;13.82;11.02;;;;;;;21.30;66.38;100055.88;5082486;28;20039;-68
2022/08/19 00:21:27;;;;;;;15.38;12.90;;;;;;;21.26;66.67;100043.13;5074904;28;20029;-67
2022/08/19 00:23:57;;;;;;;14.68;12.65;;;;;;;21.25;66.67;100041.50;5072502;28;20480;-67
2022/08/19 00:26:23;;;;;;;13.43;11.98;;;;;;;21.23;66.44;100038.22;5077169;28;20047;-67
2022/08/19 00:28:48;;;;;;;13.13;10.85;;;;;;;21.21;66.73;100027.69;5078979;28;20036;-68
2022/08/19 00:31:13;;;;;;;13.05;11.10;;;;;;;21.20;66.56;100036.81;5084972;28;20165;-68
2022/08/19 00:33:39;;;;;;;15.15;13.00;;;;;;;21.15;67.12;100050.94;5082286;28;20044;-68
2022/08/19 00:36:09;;;;;;;13.18;11.07;;;;;;;21.16;66.77;100049.06;5082510;28;20425;-68
2022/08/19 00:38:36;;;;;;;11.40;9.52;;;;;;;21.16;66.55;100055.28;5085774;28;20040;-67
2022/08/19 00:41:01;;;;;;;10.15;8.80;;;;;;;21.21;66.23;100051.88;5067259;28;20055;-68
2022/08/19 00:43:27;;;;;;;10.48;9.20;;;;;;;21.23;66.19;100049.78;5085792;28;20028;-68
2022/08/19 00:45:53;;;;;;;11.65;9.65;;;;;;;21.25;66.25;100045.00;5083743;28;20039;-69
2022/08/19 00:48:20;;;;;;;9.35;8.35;;;;;;;21.27;66.18;100047.47;5066738;28;20028;-67
2022/08/19 00:50:48;;;;;;;12.10;9.68;;;;;;;21.28;66.29;100049.91;5082969;28;20036;-68
2022/08/19 00:53:17;;;;;;;10.45;8.68;;;;;;;21.29;65.92;100043.47;5085711;28;20040;-67
2022/08/19 00:55:45;;;;;;;9.13;8.18;;;;;;;21.29;66.05;100050.75;5081206;28;20040;-69
2022/08/19 00:58:15;;;;;;;9.77;8.00;;;;;;;21.27;66.18;100055.53;5082878;28;20043;-68
2022/08/19 01:00:40;;;;;;;8.82;7.82;;;;;;;21.26;66.27;100054.72;5083114;28;20051;-68
2022/08/19 01:03:08;;;;;;;8.80;7.50;;;;;;;21.27;66.14;100055.53;5081466;28;20040;-68
2022/08/19 01:05:35;;;;;;;10.25;7.88;;;;;;;21.27;66.15;100053.66;5083740;28;20569;-69
2022/08/19 01:08:03;;;;;;;7.55;6.75;;;;;;;21.28;66.21;100063.34;5066104;28;20043;-68
2022/08/19 01:10:32;;;;;;;7.68;6.53;;;;;;;21.29;66.22;100059.63;5081284;28;20047;-67
2022/08/19 01:12:59;;;;;;;7.93;6.93;;;;;;;21.29;66.29;100048.03;5082231;28;20036;-69
2022/08/19 01:15:32;;;;;;;9.40;8.40;;;;;;;21.27;66.54;100053.66;5082510;28;20036;-68
2022/08/19 01:18:04;;;;;;;12.00;9.93;;;;;;;21.25;66.49;100050.38;5082580;28;20028;-70
2022/08/19 01:20:29;;;;;;;11.70;10.48;;;;;;;21.21;66.60;100050.03;5083919;28;20033;-67
2022/08/19 01:22:58;;;;;;;12.38;10.52;;;;;;;21.20;66.74;100045.69;5083097;28;20058;-66
2022/08/19 01:25:33;;;;;;;11.55;9.57;;;;;;;21.20;66.64;100048.38;5082503;28;20083;-68
2022/08/19 01:27:59;;;;;;;10.18;8.10;;;;;;;21.21;66.38;100058.09;5083283;28;20032;-67
2022/08/19 01:30:29;;;;;;;11.32;9.25;;;;;;;21.18;66.60;100061.22;5081887;28;20148;-67
2022/08/19 01:32:55;;;;;;;11.60;9.95;;;;;;;21.17;66.87;100061.50;5084481;28;20437;-70
2022/08/19 01:35:23;;;;;;;13.15;11.20;;;;;;;21.17;66.83;100069.56;5083577;28;20063;-68
2022/08/19 01:37:52;;;;;;;11.00;9.77;;;;;;;21.17;66.89;100073.06;5086896;28;20036;-67
2022/08/19 01:40:20;;;;;;;11.73;9.43;;;;;;;21.19;66.66;100073.66;5081422;28;20032;-66
2022/08/19 01:42:47;;;;;;;9.88;8.48;;;;;;;21.20;66.69;100075.28;5083036;28;20036;-66
2022/08/19 01:45:13;;;;;;;10.40;8.93;;;;;;;21.23;66.71;100065.91;5083276;28;20489;-68
2022/08/19 01:47:39;;;;;;;9.82;8.80;;;;;;;21.23;66.84;100065.09;5081728;28;20081;-66
2022/08/19 01:50:08;;;;;;;9.68;8.23;;;;;;;21.24;66.72;100064.88;5062611;28;20495;-66
2022/08/19 01:52:42;;;;;;;8.15;7.28;;;;;;;21.23;66.67;100062.41;5084916;28;20036;-67
2022/08/19 01:55:12;;;;;;;8.80;7.55;;;;;;;21.19;66.97;100049.44;5081367;28;20534;-66
2022/08/19 01:57:40;;;;;;;10.93;9.55;;;;;;;21.15;67.10;100052.84;5081356;28;20928;-68
2022/08/19 02:00:09;;;;;;;10.13;8.77;;;;;;;21.12;67.29;100050.63;5080302;28;20433;-67
2022/08/19 02:02:35;;;;;;;10.00;8.40;;;;;;;21.10;67.21;100063.47;5077435;28;20050;-67
2022/08/19 02:05:00;;;;;;;10.10;9.00;;;;;;;21.05;67.41;100060.66;5065259;28;20024;-66
2022/08/19 02:07:26;;;;;;;12.07;9.60;;;;;;;21.01;67.50;100065.66;5083700;28;20384;-67
2022/08/19 02:09:51;;;;;;;15.13;11.57;;;;;;;20.95;67.65;100063.91;5083373;28;20131;-66
2022/08/19 02:12:16;;;;;;;12.75;10.60;;;;;;;20.92;67.85;100067.88;5082161;28;20060;-67
2022/08/19 02:14:42;;;;;;;13.57;11.48;;;;;;;20.85;68.13;100059.09;5080426;28;20040;-66
2022/08/19 02:17:07;;;;;;;12.30;10.23;;;;;;;20.82;67.80;100064.94;5082547;28;20082;-67
2022/08/19 02:19:33;;;;;;;10.88;9.40;;;;;;;20.81;67.79;100075.91;5081153;28;20032;-68
2022/08/19 02:21:59;;;;;;;11.15;9.27;;;;;;;20.74;67.71;100067.97;5087093;28;20036;-67
2022/08/19 02:24:25;;;;;;;9.95;8.70;;;;;;;20.74;68.01;100058.03;5086331;28;20063;-67
2022/08/19 02:26:51;;;;;;;9.82;8.30;;;;;;;20.73;67.63;100066.31;5083317;28;20562;-67
2022/08/19 02:29:16;;;;;;;9.93;8.07;;;;;;;20.73;67.80;100060.94;5083081;28;20434;-67
2022/08/19 02:31:41;;;;;;;8.85;7.50;;;;;;;20.76;67.77;100077.44;5087521;28;20081;-66
2022/08/19 02:34:06;;;;;;;8.63;7.57;;;;;;;20.81;67.78;100078.59;5085180;28;20531;-67
2022/08/19 02:36:32;;;;;;;9.70;8.13;;;;;;;20.83;67.70;100084.56;5086688;28;20130;-66
2022/08/19 02:38:57;;;;;;;8.63;7.32;;;;;;;20.85;67.38;100085.16;5086899;28;20024;-66
2022/08/19 02:41:26;;;;;;;8.82;7.30;;;;;;;20.85;67.50;100077.91;5086069;28;20036;-67
2022/08/19 02:43:52;;;;;;;9.57;8.18;;;;;;;20.84;67.98;100067.41;5085983;28;20032;-67
2022/08/19 02:46:27;;;;;;;11.75;10.23;;;;;;;20.78;68.81;100063.75;5071031;28;20032;-67
2022/08/19 02:48:57;;;;;;;10.88;9.45;;;;;;;20.71;68.17;100066.56;5081990;28;20039;-67
2022/08/19 02:51:25;;;;;;;8.95;7.80;;;;;;;20.70;68.24;100064.09;5085000;28;20059;-66
2022/08/19 02:53:51;;;;;;;8.52;7.10;;;;;;;20.66;68.35;100066.41;5082483;28;20032;-67
2022/08/19 02:56:17;;;;;;;8.70;7.07;;;;;;;20.62;68.38;100073.31;5087286;28;20078;-67
2022/08/19 02:58:42;;;;;;;7.95;6.88;;;;;;;20.57;68.30;100065.94;5084728;28;20040;-66
2022/08/19 03:01:10;;;;;;;9.45;7.70;;;;;;;20.54;68.58;100077.06;5083645;28;20465;-67
2022/08/19 03:03:35;;;;;;;11.45;9.50;;;;;;;20.46;69.03;100066.66;5084669;28;20039;-66
2022/08/19 03:06:10;;;;;;;11.48;9.60;;;;;;;20.41;68.87;100063.03;5084526;28;20557;-68
2022/08/19 03:08:36;;;;;;;11.00;9.05;;;;;;;20.33;69.15;100056.94;5083702;28;20136;-66
2022/08/19 03:11:02;;;;;;;11.00;9.55;;;;;;;20.28;69.52;100053.28;5084964;28;20492;-67
2022/08/19 03:13:28;;;;;;;13.10;10.52;;;;;;;20.21;69.95;100050.69;5079270;28;20037;-66
2022/08/19 03:15:54;;;;;;;11.77;10.35;;;;;;;20.14;70.30;100053.47;5085428;28;20040;-66
2022/08/19 03:18:19;;;;;;;13.18;10.90;;;;;;;20.08;70.38;100051.69;5084820;28;20044;-66
2022/08/19 03:20:48;;;;;;;13.90;10.57;;;;;;;20.08;70.47;100053.56;5084676;28;20547;-67
2022/08/19 03:23:15;;;;;;;12.48;10.55;;;;;;;20.09;69.98;100057.84;5082909;28;20439;-66
2022/08/19 03:25:43;;;;;;;12.05;10.50;;;;;;;20.11;70.15;100059.28;5084788;28;20107;-68
2022/08/19 03:28:13;;;;;;;12.18;10.07;;;;;;;20.12;70.13;100058.25;5084046;28;20064;-66
2022/08/19 03:30:40;;;;;;;13.02;10.75;;;;;;;20.09;70.23;100064.06;5077954;28;20031;-68
2022/08/19 03:33:06;;;;;;;12.40;9.45;;;;;;;20.06;70.10;100067.19;5068102;28;20107;-66
2022/08/19 03:35:32;;;;;;;14.82;12.20;;;;;;;20.01;70.63;100067.03;5084172;28;20032;-66
2022/08/19 03:37:59;;;;;;;14.15;11.40;;;;;;;19.96;70.84;100066.09;5083378;28;20044;-68
2022/08/19 03:40:25;;;;;;;13.07;10.73;;;;;;;19.91;70.78;100059.53;5083697;28;20439;-67
2022/08/19 03:42:50;;;;;;;13.32;10.02;;;;;;;19.87;70.57;100065.56;5085488;28;20052;-67
2022/08/19 03:45:16;;;;;;;11.52;9.57;;;;;;;19.87;70.39;100070.94;5085890;28;20079;-67
2022/08/19 03:47:42;;;;;;;16.40;11.90;;;;;;;19.89;70.40;100082.25;5084780;28;20569;-67
2022/08/19 03:50:08;;;;;;;13.85;12.07;;;;;;;19.90;70.39;100091.94;5050566;28;20036;-67
2022/08/19 03:52:35;;;;;;;15.63;13.93;;;;;;;19.92;70.51;100093.34;5083528;28;20035;-66
2022/08/19 03:55:01;;;;;;;13.57;11.35;;;;;;;19.92;70.36;100098.72;5083847;28;20083;-66
2022/08/19 03:57:26;;;;;;;12.77;10.77;;;;;;;19.92;70.29;100100.59;5084195;28;20504;-67
2022/08/19 03:59:52;;;;;;;12.65;10.30;;;;;;;19.94;70.45;100098.50;5050248;28;20097;-67
2022/08/19 04:02:17;;;;;;;12.82;10.40;;;;;;;19.92;70.40;100106.78;5084311;28;20070;-67
2022/08/19 04:04:43;;;;;;;12.65;10.63;;;;;;;19.85;70.46;100105.22;5081643;28;20064;-67
2022/08/19 04:07:09;;;;;;;10.85;9.60;;;;;;;19.79;71.01;100092.69;5083708;28;20097;-67
2022/08/19 04:09:36;;;;;;;14.57;11.82;;;;;;;19.70;71.26;100098.34;5084647;28;20028;-67
2022/08/19 04:12:02;;;;;;;14.00;12.05;;;;;;;19.63;71.43;100094.88;5066302;28;20060;-67
2022/08/19 04:14:32;;;;;;;12.70;10.77;;;;;;;19.59;71.29;100099.03;5081603;28;20032;-67
2022/08/19 04:16:58;;;;;;;11.43;10.10;;;;;;;19.56;71.46;100104.84;5082916;28;20465;-66
2022/08/19 04:19:25;;;;;;;9.55;8.32;;;;;;;19.54;71.20;100104.25;5084684;28;20036;-67
2022/08/19 04:21:53;;;;;;;9.35;7.97;;;;;;;19.56;71.21;100099.50;5073066;28;20467;-70
2022/08/19 04:24:18;;;;;;;15.98;10.23;;;;;;;19.57;71.67;100101.16;5080977;28;20045;-67
2022/08/19 04:26:44;;;;;;;12.82;10.57;;;;;;;19.55;71.77;100102.41;5087053;28;20047;-66
2022/08/19 04:29:21;;;;;;;13.88;12.10;;;;;;;19.51;72.27;100102.03;5084559;28;20097;-66
2022/08/19 04:31:48;;;;;;;12.50;10.90;;;;;;;19.54;72.05;100090.84;5084153;28;20036;-67
2022/08/19 04:34:17;;;;;;;17.25;12.25;;;;;;;19.57;72.34;100090.41;5082223;28;20033;-66
2022/08/19 04:36:44;;;;;;;15.07;12.40;;;;;;;19.58;72.33;100085.88;5079583;28;20048;-66
2022/08/19 04:39:23;;;;;;;15.10;11.00;;;;;;;19.59;72.59;100085.63;5079464;28;20389;-67
2022/08/19 04:44:34;;;;;;;15.80;12.98;;;;;;;19.64;72.43;100091.16;5080989;28;20094;-66
2022/08/19 04:47:00;;;;;;;14.77;11.98;;;;;;;19.67;72.47;100088.03;5081609;28;20036;-67
2022/08/19 04:49:26;;;;;;;11.75;10.45;;;;;;;19.68;72.40;100086.19;5083677;28;20057;-67
2022/08/19 04:51:54;;;;;;;15.25;12.32;;;;;;;19.67;72.67;100084.53;5083696;28;20310;-66
2022/08/19 04:54:22;;;;;;;17.67;11.35;;;;;;;19.67;72.72;100081.84;5080355;28;20035;-67
2022/08/19 04:56:49;;;;;;;16.45;13.43;;;;;;;19.65;72.79;100083.94;5082573;28;20051;-66
2022/08/19 04:59:15;;;;;;;17.95;14.70;;;;;;;19.66;72.81;100089.09;5079611;28;20081;-66
2022/08/19 05:01:42;;;;;;;18.15;14.50;;;;;;;19.69;72.96;100085.19;5084148;28;20107;-67
2022/08/19 05:04:08;;;;;;;14.73;12.50;;;;;;;19.72;72.59;100090.09;5082613;28;20052;-67
2022/08/19 05:06:35;;;;;;;14.85;11.85;;;;;;;19.76;72.53;100093.97;5084077;28;20032;-67
2022/08/19 05:09:05;;;;;;;11.88;10.15;;;;;;;19.80;72.30;100092.47;5079683;28;20040;-68
2022/08/19 05:11:33;;;;;;;11.27;9.63;;;;;;;19.85;72.18;100095.28;5082901;28;20047;-66
2022/08/19 05:13:59;;;;;;;15.52;12.10;;;;;;;19.89;72.21;100088.44;5080251;28;20267;-67
2022/08/19 05:16:26;;;;;;;13.85;11.50;;;;;;;19.94;71.93;100096.63;5066755;28;20093;-67
2022/08/19 05:24:21;;;;;;;8.98;7.70;;;;;;;20.01;71.77;100111.84;5075805;28;20458;-66
2022/08/19 05:26:49;;;;;;;10.20;8.77;;;;;;;20.05;72.27;100107.69;5065736;28;20449;-68
2022/08/19 05:29:18;;;;;;;12.02;10.20;;;;;;;20.10;72.27;100105.97;5085147;28;20051;-66
2022/08/19 05:31:44;;;;;;;13.63;11.45;;;;;;;20.18;72.28;100099.47;5080566;28;20063;-66
2022/08/19 05:34:10;;;;;;;12.98;11.18;;;;;;;20.29;71.83;100098.72;5081584;28;20059;-68
2022/08/19 05:36:41;;;;;;;13.63;11.00;;;;;;;20.43;71.71;100104.72;5084815;28;20036;-67
2022/08/19 05:39:08;;;;;;;14.82;11.23;;;;;;;20.57;71.33;100116.97;5083842;28;20055;-67
2022/08/19 05:41:34;;;;;;;14.43;11.45;;;;;;;20.68;70.81;100127.97;5083356;28;20032;-68
2022/08/19 05:44:06;;;;;;;13.02;10.05;;;;;;;20.85;70.67;100134.34;5076913;28;20043;-68
2022/08/19 05:46:32;;;;;;;15.23;12.13;;;;;;;20.94;70.36;100132.16;5082042;28;20310;-67
2022/08/19 05:48:57;;;;;;;14.20;11.85;;;;;;;21.05;70.29;100130.56;5082815;28;20044;-68
2022/08/19 05:51:24;;;;;;;13.45;11.40;;;;;;;21.20;69.81;100133.63;5081331;28;20040;-67
2022/08/19 05:53:50;;;;;;;15.10;12.35;;;;;;;21.34;69.23;100131.53;5068377;28;20035;-69
2022/08/19 05:56:17;;;;;;;12.70;11.02;;;;;;;21.48;69.23;100145.63;5083178;28;20052;-69
2022/08/19 05:58:44;;;;;;;13.98;11.60;;;;;;;21.62;68.60;100153.22;5088896;28;20039;-69
2022/08/19 06:01:13;;;;;;;16.73;13.40;;;;;;;21.72;68.03;100149.94;5085121;28;20335;-68
2022/08/19 06:03:39;;;;;;;14.05;11.82;;;;;;;21.85;67.74;100156.94;5088376;28;20424;-68
2022/08/19 06:06:06;;;;;;;15.38;12.77;;;;;;;21.96;67.37;100163.38;5085241;28;20055;-69
2022/08/19 06:08:32;;;;;;;16.40;13.38;;;;;;;22.00;66.76;100169.91;5086025;28;20546;-68
2022/08/19 06:10:57;;;;;;;14.85;12.27;;;;;;;22.08;66.60;100169.56;5068876;28;20515;-68
2022/08/19 06:13:23;;;;;;;15.77;13.52;;;;;;;22.14;65.98;100174.00;5084380;28;20048;-69
2022/08/19 06:15:49;;;;;;;13.40;11.15;;;;;;;22.22;66.06;100176.38;5084622;28;20028;-69
2022/08/19 06:18:15;;;;;;;11.50;10.23;;;;;;;22.30;66.07;100179.75;5088072;28;20036;-70
2022/08/19 06:20:41;;;;;;;10.90;9.52;;;;;;;22.42;65.79;100194.00;5087490;28;20542;-69
2022/08/19 06:23:08;;;;;;;11.77;10.05;;;;;;;22.51;65.39;100192.59;5085871;28;20063;-69
2022/08/19 06:25:33;;;;;;;15.20;13.13;;;;;;;22.50;64.54;100190.97;5079101;28;20047;-70
2022/08/19 06:27:58;;;;;;;11.77;10.02;;;;;;;22.53;64.63;100192.34;5083989;28;20044;-73
2022/08/19 06:30:23;;;;;;;12.15;10.52;;;;;;;22.53;64.63;100190.47;5087263;28;20044;-73
2022/08/19 06:32:49;;;;;;;10.65;8.88;;;;;;;22.63;64.68;100195.25;5090978;28;20657;-68
2022/08/19 06:35:14;;;;;;;9.65;8.52;;;;;;;22.66;64.37;100203.66;5085667;28;20047;-69
2022/08/19 06:37:40;;;;;;;11.20;9.70;;;;;;;22.65;64.24;100210.13;5081734;28;20059;-69
2022/08/19 06:40:08;;;;;;;11.77;9.05;;;;;;;22.72;64.21;100217.25;5079338;28;20040;-70
2022/08/19 06:42:34;;;;;;;8.95;8.05;;;;;;;22.82;63.71;100212.06;5088420;28;20028;-72
2022/08/19 06:45:03;;;;;;;13.50;10.98;;;;;;;22.83;63.16;100209.09;5081764;28;20392;-68
2022/08/19 06:47:28;;;;;;;12.07;10.18;;;;;;;22.89;62.98;100210.84;5086381;28;20038;-71
2022/08/19 06:50:07;;;;;;;10.77;9.20;;;;;;;23.03;62.75;100206.00;5088474;28;20024;-68
2022/08/19 06:52:34;;;;;;;14.52;11.75;;;;;;;23.10;62.50;100211.25;5085488;28;20485;-70
2022/08/19 06:55:00;;;;;;;17.77;14.63;;;;;;;23.01;61.81;100218.91;5089455;28;20063;-71
2022/08/19 06:57:26;;;;;;;14.45;11.25;;;;;;;23.06;61.92;100223.59;5083791;28;20044;-70
2022/08/19 06:59:52;;;;;;;13.50;11.43;;;;;;;23.15;61.92;100224.84;5080620;28;20249;-70
2022/08/19 07:02:18;;;;;;;18.33;14.55;;;;;;;23.11;60.91;100224.50;5085429;28;20039;-68
2022/08/19 07:04:44;;;;;;;14.63;12.77;;;;;;;23.16;61.32;100228.34;5082021;28;20038;-68
2022/08/19 07:07:13;;;;;;;15.27;12.40;;;;;;;23.19;61.30;100217.91;5067629;28;20484;-71
2022/08/19 07:09:43;;;;;;;14.05;12.18;;;;;;;23.26;61.04;100215.03;5081539;28;20047;-71
2022/08/19 07:12:11;;;;;;;13.18;11.32;;;;;;;23.29;60.27;100217.25;5082552;28;20510;-67
2022/08/19 07:14:37;;;;;;;14.90;12.20;;;;;;;23.25;60.61;100206.13;5089835;28;20107;-68
2022/08/19 07:17:06;;;;;;;15.60;13.50;;;;;;;23.16;60.18;100210.28;5086302;28;20040;-67
2022/08/19 07:19:33;;;;;;;13.73;11.45;;;;;;;23.21;60.47;100204.97;5074129;28;20036;-67
2022/08/19 07:22:01;;;;;;;13.93;12.25;;;;;;;23.31;60.41;100207.03;5088074;28;20059;-71
2022/08/19 07:24:28;;;;;;;18.25;12.82;;;;;;;23.41;60.01;100203.72;5078628;28;20131;-69
2022/08/19 07:26:56;;;;;;;13.82;10.75;;;;;;;23.48;60.24;100207.06;5080843;28;20043;-70
2022/08/19 07:29:23;;;;;;;13.88;11.85;;;;;;;23.70;59.57;100205.25;5067527;28;20033;-71
2022/08/19 07:31:50;;;;;;;12.75;10.52;;;;;;;23.94;59.10;100200.50;5083064;28;20047;-73
2022/08/19 07:34:16;;;;;;;11.35;9.70;;;;;;;24.28;58.18;100205.81;5077855;28;20279;-68
2022/08/19 07:36:43;;;;;;;10.20;8.65;;;;;;;24.48;58.06;100201.75;5082831;28;20044;-69
2022/08/19 07:39:12;;;;;;;10.80;9.63;;;;;;;24.46;57.72;100203.91;5082777;28;20063;-68
2022/08/19 07:41:37;;;;;;;11.50;10.15;;;;;;;24.35;57.41;100203.75;5085337;28;20761;-68
2022/08/19 07:44:04;;;;;;;13.48;10.68;;;;;;;24.10;57.37;100203.44;5081661;28;20040;-68
2022/08/19 07:46:32;;;;;;;11.57;9.95;;;;;;;23.92;57.85;100199.13;5077512;28;20043;-68
2022/08/19 07:48:57;;;;;;;12.30;10.55;;;;;;;23.86;57.80;100205.50;5081959;28;20040;-68
2022/08/19 07:51:23;;;;;;;14.30;11.55;;;;;;;23.73;58.27;100214.72;5082100;28;20040;-68
2022/08/19 07:53:49;;;;;;;13.40;10.80;;;;;;;23.76;58.26;100211.56;5079298;28;20040;-70
2022/08/19 07:56:15;;;;;;;12.13;10.23;;;;;;;23.87;58.12;100221.47;5075495;28;20028;-71
2022/08/19 07:58:44;;;;;;;11.80;10.57;;;;;;;24.08;58.08;100213.66;5079032;28;20500;-68
2022/08/19 08:01:12;;;;;;;11.32;9.23;;;;;;;24.27;57.74;100217.69;5083765;28;20036;-73
2022/08/19 08:09:15;;;;;;;10.77;9.27;;;;;;;25.10;56.25;100212.19;5080479;28;20106;-67
2022/08/19 08:11:49;;;;;;;13.10;11.45;;;;;;;25.15;54.92;100212.25;5083596;28;20358;-66
2022/08/19 08:14:22;;;;;;;9.18;8.18;;;;;;;25.80;54.83;100201.41;5065635;28;20032;-71
2022/08/19 08:16:50;;;;;;;10.18;8.23;;;;;;;26.51;52.90;100201.00;5082728;28;20066;-67
2022/08/19 08:19:17;;;;;;;11.77;9.13;;;;;;;26.80;50.92;100193.25;5077384;28;20126;-66
2022/08/19 08:21:43;;;;;;;10.10;8.18;;;;;;;26.58;51.06;100198.91;5083460;28;20081;-67
2022/08/19 08:24:09;;;;;;;8.38;7.40;;;;;;;26.26;51.97;100199.81;5079899;28;20518;-73
2022/08/19 08:26:34;;;;;;;10.85;8.35;;;;;;;26.21;52.49;100207.09;5081289;28;20032;-68
2022/08/19 08:28:59;;;;;;;9.60;7.97;;;;;;;26.67;52.17;100208.16;5080179;28;20036;-67
2022/08/19 08:31:25;;;;;;;9.15;7.60;;;;;;;27.25;50.47;100209.91;5081682;28;20047;-71
2022/08/19 08:33:50;;;;;;;7.63;6.57;;;;;;;28.04;49.56;100208.50;5082345;28;20032;-67
2022/08/19 08:36:16;;;;;;;8.32;6.50;;;;;;;28.82;48.13;100201.69;5074947;28;20047;-70
2022/08/19 08:38:46;;;;;;;8.15;6.30;;;;;;;29.27;45.66;100197.06;5080051;28;20040;-67
2022/08/19 08:41:34;;;;;;;9.45;6.65;;;;;;;29.62;43.85;100193.19;5077779;28;20120;-70
2022/08/19 08:44:04;;;;;;;7.00;6.30;;;;;;;29.77;43.09;100202.34;5077898;28;20542;-66
2022/08/19 08:46:32;;;;;;;7.35;6.43;;;;;;;29.69;43.07;100209.25;5078852;28;20051;-66
2022/08/19 08:49:13;;;;;;;5.85;5.10;;;;;;;30.18;43.75;100208.19;5078176;28;20039;-67
2022/08/19 08:51:50;;;;;;;5.97;5.13;;;;;;;30.42;41.89;100208.19;5080772;28;20035;-72
2022/08/19 08:54:20;;;;;;;6.15;4.20;;;;;;;30.51;42.13;100216.56;5083346;28;20446;-67
2022/08/19 08:56:49;;;;;;;5.35;4.47;;;;;;;30.42;40.96;100219.13;5086757;28;20044;-70
2022/08/19 08:59:32;;;;;;;6.15;4.10;;;;;;;30.23;41.18;100210.84;5080493;28;20040;-70
2022/08/19 09:01:57;;;;;;;4.85;4.28;;;;;;;30.22;41.03;100214.69;5082503;28;20039;-65
2022/08/19 09:04:22;;;;;;;6.40;3.92;;;;;;;29.85;40.36;100210.72;5082804;28;20028;-66
2022/08/19 09:07:03;;;;;;;4.80;4.25;;;;;;;29.32;41.07;100220.69;5084563;28;20060;-66
2022/08/19 09:09:34;;;;;;;5.30;3.65;;;;;;;28.75;41.80;100220.25;5080421;28;20036;-66
2022/08/19 09:12:20;;;;;;;4.72;3.88;;;;;;;28.55;42.52;100213.78;5078559;28;20404;-65
2022/08/19 09:14:50;;;;;;;4.93;4.05;;;;;;;28.58;43.03;100218.69;5078218;28;20051;-65
2022/08/19 09:17:16;;;;;;;6.20;4.57;;;;;;;28.47;42.40;100214.38;5077341;28;20070;-66
2022/08/19 09:19:52;;;;;;;5.20;3.90;;;;;;;28.97;42.17;100211.66;5076521;28;20473;-65
2022/08/19 09:22:21;;;;;;;4.93;3.63;;;;;;;30.13;40.72;100213.72;5081342;28;20132;-65
2022/08/19 09:24:46;;;;;;;4.60;3.92;;;;;;;31.17;37.88;100217.53;5083821;28;20036;-65
2022/08/19 09:27:11;;;;;;;5.20;4.10;;;;;;;31.45;36.96;100212.22;5077770;28;20042;-66
2022/08/19 09:29:36;;;;;;;6.05;4.20;;;;;;;31.83;36.45;100217.56;5080378;28;20046;-66
2022/08/19 09:32:02;;;;;;;4.93;4.10;;;;;;;32.14;35.86;100209.63;5081285;28;20381;-66
2022/08/19 09:34:29;;;;;;;5.00;3.42;;;;;;;32.18;35.48;100207.91;5084313;28;20298;-66
2022/08/19 09:36:57;;;;;;;5.00;3.90;;;;;;;32.68;34.99;100212.63;5083661;28;20497;-65
2022/08/19 09:39:23;;;;;;;3.95;2.97;;;;;;;32.88;34.62;100121.00;5084145;28;20054;-66
2022/08/19 09:41:49;;;;;;;4.68;3.40;;;;;;;33.42;33.46;100226.00;5081252;28;20070;-66
2022/08/19 09:44:15;;;;;;;3.47;3.05;;;;;;;34.04;33.01;100206.81;5079379;28;20500;-66
2022/08/19 09:46:41;;;;;;;4.38;2.63;;;;;;;34.58;32.27;100203.09;5079338;28;20097;-66
2022/08/19 09:49:06;;;;;;;4.03;3.22;;;;;;;35.00;31.62;100208.97;5080479;28;20474;-66
2022/08/19 09:51:32;;;;;;;3.55;2.67;;;;;;;35.17;31.42;100206.25;5082878;28;20036;-66
2022/08/19 09:54:02;;;;;;;3.55;2.92;;;;;;;34.58;29.88;100214.88;5083677;28;20036;-67
2022/08/19 09:56:30;;;;;;;3.70;2.80;;;;;;;34.60;31.20;100198.94;5081626;28;20593;-66
2022/08/19 09:58:57;;;;;;;3.53;2.80;;;;;;;34.53;31.38;100197.78;5080094;28;20085;-66
2022/08/19 10:01:25;;;;;;;3.10;2.50;;;;;;;34.55;30.34;100199.06;5085308;28;20200;-66
2022/08/19 10:03:53;;;;;;;3.60;2.90;;;;;;;34.44;30.30;100205.97;5082802;28;20528;-66
2022/08/19 10:06:21;;;;;;;7.30;3.10;;;;;;;34.54;30.21;100191.97;5081117;28;20041;-66
2022/08/19 10:08:47;;;;;;;3.60;2.78;;;;;;;35.14;29.92;100200.59;5084549;28;20035;-66
2022/08/19 10:11:15;;;;;;;2.92;2.63;;;;;;;35.78;29.61;100197.88;5078401;28;20032;-66
2022/08/19 10:13:42;;;;;;;2.75;1.98;;;;;;;36.37;28.31;100202.63;5084803;28;20040;-66
2022/08/19 10:16:10;;;;;;;3.35;2.40;;;;;;;36.51;27.47;100189.41;5078665;28;20036;-66
2022/08/19 10:18:37;;;;;;;3.85;2.70;;;;;;;36.59;26.93;100200.72;5088969;28;20419;-66
2022/08/19 10:21:17;;;;;;;4.60;2.88;;;;;;;35.10;28.28;100195.72;5084924;28;20404;-65
2022/08/19 10:23:45;;;;;;;3.15;2.47;;;;;;;35.72;28.73;100186.25;5069375;28;20218;-66
2022/08/19 10:26:13;;;;;;;2.92;2.55;;;;;;;36.34;27.24;100195.84;5081506;28;20032;-66
2022/08/19 10:28:39;;;;;;;2.97;2.60;;;;;;;36.84;26.74;100193.41;5081234;28;20028;-66
2022/08/19 10:31:31;;;;;;;3.83;2.53;;;;;;;37.05;25.09;100207.19;5082498;28;20148;-66
2022/08/19 10:33:57;;;;;;;2.50;2.10;;;;;;;36.99;25.71;100199.13;5076748;28;20059;-66
2022/08/19 10:36:27;;;;;;;4.88;2.72;;;;;;;35.52;27.77;100186.94;5082383;28;20039;-66
2022/08/19 10:38:56;;;;;;;2.70;2.40;;;;;;;34.51;29.49;100178.06;5082230;28;20496;-66
2022/08/19 10:41:23;;;;;;;3.00;2.70;;;;;;;33.89;30.22;100200.94;5083400;28;20039;-66
2022/08/19 10:43:56;;;;;;;4.05;3.20;;;;;;;32.74;31.68;100192.22;5086019;28;20111;-66
2022/08/19 10:46:24;;;;;;;3.50;2.85;;;;;;;32.13;33.18;100186.94;5082579;28;20090;-66
2022/08/19 10:48:50;;;;;;;4.07;3.10;;;;;;;32.38;32.71;100184.78;5086213;28;20032;-66
2022/08/19 10:54:00;;;;;;;3.45;2.60;;;;;;;35.82;28.83;100179.56;5084883;28;20039;-65
2022/08/19 10:59:13;;;;;;;4.18;2.95;;;;;;;38.34;25.22;100178.44;5079680;28;20071;-66
2022/08/19 11:01:40;;;;;;;4.32;2.80;;;;;;;36.70;26.44;100185.41;5080778;28;20353;-65
2022/08/19 11:04:09;;;;;;;3.78;2.80;;;;;;;34.77;28.64;100170.66;5081258;28;20135;-66
2022/08/19 11:06:35;;;;;;;4.50;3.05;;;;;;;33.65;30.07;100166.47;5079563;28;20400;-65
2022/08/19 11:09:00;;;;;;;4.43;3.22;;;;;;;32.13;31.66;100167.78;5081350;28;20055;-65
2022/08/19 11:11:26;;;;;;;3.53;3.17;;;;;;;33.10;31.19;100153.88;5083856;28;20064;-66
2022/08/19 11:13:52;;;;;;;3.97;3.00;;;;;;;35.57;28.75;100145.50;5085982;28;20087;-66
2022/08/19 11:16:21;;;;;;;5.20;3.88;;;;;;;36.62;26.81;100153.25;5073119;28;20591;-66
2022/08/19 11:18:58;;;;;;;4.70;3.72;;;;;;;35.58;27.39;100143.56;5068548;28;20036;-66
2022/08/19 11:21:26;;;;;;;4.72;3.90;;;;;;;35.93;26.75;100136.00;5082740;28;20027;-66
2022/08/19 11:23:55;;;;;;;4.63;3.75;;;;;;;36.97;26.31;100129.75;5080092;28;20562;-66
2022/08/19 11:26:22;;;;;;;4.53;3.65;;;;;;;38.13;24.82;100134.41;5075064;28;20453;-66
2022/08/19 11:28:47;;;;;;;5.15;4.00;;;;;;;38.18;23.77;100134.16;5085641;28;20089;-67
2022/08/19 11:31:18;;;;;;;5.07;3.67;;;;;;;38.81;24.21;100133.66;5087097;28;20056;-67
2022/08/19 11:33:44;;;;;;;4.50;4.03;;;;;;;39.36;22.99;100143.09;5086276;28;20059;-67
2022/08/19 11:36:09;;;;;;;4.10;3.70;;;;;;;38.57;24.13;100143.66;5081931;28;20055;-66
2022/08/19 11:38:36;;;;;;;5.25;3.65;;;;;;;38.43;24.40;100132.97;5091791;28;20028;-67